Time;durP1;ratioP1;P1;durP2;ratioP2;P2;SDS_P1;SDS_P2;PMS_P1;PMS_P2;Temp;Humidity;BMP_temperature;BMP_pressure;BME280_temperature;BME280_humidity;BME280_pressure;Samples;Min_cycle;Max_cycle;Signal;HPM_P1;HPM_P2
2021/07/13 00:00:47;;;;;;;9.68;7.32;;;;;;;18.82;100.00;100058.88;4861821;29;20029;-84
2021/07/13 00:03:12;;;;;;;9.43;6.90;;;;;;;18.71;100.00;100063.06;4845473;29;20498;-84
2021/07/13 00:05:38;;;;;;;8.40;6.50;;;;;;;18.64;100.00;100062.56;4861820;29;20030;-84
2021/07/13 00:08:04;;;;;;;8.90;6.63;;;;;;;18.53;100.00;100059.72;4861826;29;20029;-83
2021/07/13 00:10:31;;;;;;;8.77;7.63;;;;;;;18.50;100.00;100058.13;4845553;29;20025;-84
2021/07/13 00:12:58;;;;;;;9.55;6.90;;;;;;;18.42;100.00;100062.16;4845861;29;20033;-84
2021/07/13 00:15:27;;;;;;;9.88;7.30;;;;;;;18.45;100.00;100057.56;4861644;29;20534;-84
2021/07/13 00:17:54;;;;;;;11.90;7.38;;;;;;;18.39;100.00;100060.56;4861575;29;20033;-84
2021/07/13 00:20:21;;;;;;;10.50;7.30;;;;;;;18.37;100.00;100059.78;4861619;29;20025;-83
2021/07/13 00:22:47;;;;;;;10.45;7.40;;;;;;;18.37;100.00;100057.16;4861727;29;20028;-83
2021/07/13 00:25:14;;;;;;;10.30;7.88;;;;;;;18.28;100.00;100050.66;4861575;29;20029;-84
2021/07/13 00:27:40;;;;;;;10.73;7.43;;;;;;;18.25;100.00;100061.34;4844986;29;20025;-84
2021/07/13 00:30:07;;;;;;;9.73;7.07;;;;;;;18.31;100.00;100062.78;4861254;29;20040;-83
2021/07/13 00:32:33;;;;;;;10.45;7.97;;;;;;;18.28;100.00;100057.69;4844682;29;20037;-84
2021/07/13 00:34:58;;;;;;;9.23;6.82;;;;;;;18.20;100.00;100063.41;4861906;29;20036;-83
2021/07/13 00:37:23;;;;;;;12.98;8.00;;;;;;;18.08;100.00;100072.00;4844910;29;20045;-84
2021/07/13 00:39:49;;;;;;;10.57;7.63;;;;;;;18.13;100.00;100068.19;4862043;29;20025;-83
2021/07/13 00:42:16;;;;;;;10.45;8.10;;;;;;;18.17;100.00;100067.06;4861509;29;20029;-83
2021/07/13 00:44:42;;;;;;;10.15;8.82;;;;;;;18.26;100.00;100062.22;4861234;29;20030;-84
2021/07/13 00:47:09;;;;;;;10.90;8.27;;;;;;;18.20;100.00;100067.81;4861325;29;20043;-83
2021/07/13 00:49:35;;;;;;;9.93;8.93;;;;;;;18.23;100.00;100059.78;4861327;29;20034;-83
2021/07/13 00:52:01;;;;;;;10.25;8.45;;;;;;;18.14;100.00;100063.75;4861259;29;20029;-83
2021/07/13 00:54:27;;;;;;;9.10;7.75;;;;;;;18.07;100.00;100058.03;4861565;29;20030;-83
2021/07/13 00:56:55;;;;;;;9.98;7.95;;;;;;;17.99;100.00;100057.59;4861295;29;20398;-83
2021/07/13 00:59:20;;;;;;;11.00;8.82;;;;;;;18.16;100.00;100062.75;4861290;29;20025;-83
2021/07/13 01:01:47;;;;;;;13.05;8.30;;;;;;;18.32;100.00;100057.44;4844751;29;20086;-83
2021/07/13 01:04:14;;;;;;;11.52;8.57;;;;;;;18.40;100.00;100062.25;4861257;29;20061;-83
2021/07/13 01:06:54;;;;;;;13.45;7.72;;;;;;;18.52;100.00;100066.78;4844855;29;20022;-83
2021/07/13 01:09:46;;;;;;;11.50;7.82;;;;;;;18.53;100.00;100064.97;4845003;29;20030;-84
2021/07/13 01:12:23;;;;;;;10.70;7.97;;;;;;;18.54;100.00;100059.66;4830504;29;20045;-84
2021/07/13 01:14:56;;;;;;;10.85;8.27;;;;;;;18.67;100.00;100064.19;4861270;29;20530;-84
2021/07/13 01:17:32;;;;;;;9.93;8.32;;;;;;;18.72;100.00;100065.59;4860974;29;20025;-84
2021/07/13 01:20:10;;;;;;;11.05;8.25;;;;;;;18.72;100.00;100056.84;4844879;29;20045;-84
2021/07/13 01:23:11;;;;;;;9.32;8.05;;;;;;;18.72;100.00;100056.84;4846235;29;20033;-84
2021/07/13 01:26:14;;;;;;;10.20;8.15;;;;;;;18.72;100.00;100059.47;4847555;29;20068;-84
2021/07/13 01:28:43;;;;;;;10.68;8.35;;;;;;;18.77;100.00;100057.47;4861389;29;20029;-83
2021/07/13 01:31:16;;;;;;;12.18;8.25;;;;;;;18.76;100.00;100051.38;4860541;29;20033;-83
2021/07/13 01:33:48;;;;;;;10.77;8.37;;;;;;;18.75;100.00;100043.56;4845058;29;20034;-83
2021/07/13 01:36:21;;;;;;;11.60;8.60;;;;;;;18.74;100.00;100036.63;4861220;29;20068;-84
2021/07/13 01:38:48;;;;;;;10.50;7.82;;;;;;;18.76;100.00;100035.59;4860836;29;20022;-83
2021/07/13 01:41:19;;;;;;;10.55;8.45;;;;;;;18.80;100.00;100028.38;4860667;29;20058;-84
2021/07/13 01:43:46;;;;;;;8.95;7.78;;;;;;;18.76;100.00;100029.50;4860840;29;20036;-84
2021/07/13 01:46:13;;;;;;;13.38;8.15;;;;;;;18.76;100.00;100022.47;4860698;29;20393;-83
2021/07/13 01:48:39;;;;;;;11.60;8.70;;;;;;;18.75;100.00;100018.16;4860839;29;20060;-84
2021/07/13 01:51:06;;;;;;;12.57;7.35;;;;;;;18.69;100.00;100018.50;4860890;29;20030;-83
2021/07/13 01:53:32;;;;;;;10.23;8.27;;;;;;;18.71;100.00;100018.38;4844247;29;20032;-83
2021/07/13 01:55:59;;;;;;;11.88;8.32;;;;;;;18.59;100.00;100012.94;4844339;29;20035;-83
2021/07/13 01:58:28;;;;;;;11.02;8.02;;;;;;;18.54;100.00;100006.28;4860719;29;20029;-83
2021/07/13 02:00:56;;;;;;;11.57;7.95;;;;;;;18.61;100.00;100010.22;4860472;29;20105;-83
2021/07/13 02:03:24;;;;;;;10.02;7.88;;;;;;;18.55;100.00;100011.44;4845356;29;20029;-83
2021/07/13 02:05:50;;;;;;;12.88;8.57;;;;;;;18.61;100.00;100005.81;4848195;29;20113;-84
2021/07/13 02:08:17;;;;;;;12.48;8.63;;;;;;;18.68;100.00;100011.53;4847410;29;20029;-84
2021/07/13 02:10:43;;;;;;;10.40;8.35;;;;;;;18.67;100.00;100009.00;4863956;29;20037;-83
2021/07/13 02:13:10;;;;;;;10.18;8.43;;;;;;;18.62;100.00;100011.91;4864196;29;20042;-83
2021/07/13 02:15:37;;;;;;;10.70;8.45;;;;;;;18.63;100.00;100013.63;4863828;29;20057;-83
2021/07/13 02:18:03;;;;;;;10.85;8.30;;;;;;;18.53;100.00;100009.81;4863664;29;20052;-84
2021/07/13 02:20:29;;;;;;;9.40;8.27;;;;;;;18.55;100.00;100018.47;4863925;29;20116;-83
2021/07/13 02:22:54;;;;;;;13.70;8.70;;;;;;;18.50;100.00;100007.38;4863610;29;20049;-83
2021/07/13 02:25:20;;;;;;;18.13;8.68;;;;;;;18.47;100.00;100000.53;4864017;29;20450;-84
2021/07/13 02:27:56;;;;;;;13.68;9.25;;;;;;;18.43;100.00;99996.41;4863519;29;20375;-84
2021/07/13 02:30:25;;;;;;;11.75;8.95;;;;;;;18.39;100.00;99993.13;4863332;29;20054;-84
2021/07/13 02:32:57;;;;;;;11.07;8.65;;;;;;;18.39;100.00;99997.53;4863418;29;20494;-84
2021/07/13 02:35:33;;;;;;;12.68;9.60;;;;;;;18.34;100.00;99992.53;4847547;29;20026;-84
2021/07/13 02:37:59;;;;;;;12.20;9.00;;;;;;;18.36;100.00;99993.31;4863309;29;20093;-84
2021/07/13 02:40:25;;;;;;;13.23;9.60;;;;;;;18.33;100.00;99988.25;4863710;29;20029;-84
2021/07/13 02:42:50;;;;;;;14.43;9.02;;;;;;;18.32;100.00;99988.34;4863367;29;20105;-84
2021/07/13 02:45:16;;;;;;;10.07;8.70;;;;;;;18.29;100.00;99984.13;4863399;29;20025;-83
2021/07/13 02:47:47;;;;;;;11.93;9.00;;;;;;;18.31;100.00;99989.25;4863339;29;20402;-83
2021/07/13 02:50:16;;;;;;;12.07;9.60;;;;;;;18.30;100.00;99987.59;4863249;29;20030;-83
2021/07/13 02:52:42;;;;;;;13.43;9.45;;;;;;;18.32;100.00;99989.19;4863703;29;20108;-83
2021/07/13 02:55:13;;;;;;;12.98;9.35;;;;;;;18.24;100.00;99985.31;4863879;29;20077;-83
2021/07/13 02:57:39;;;;;;;15.43;9.88;;;;;;;18.22;100.00;99988.03;4864275;29;20037;-83
2021/07/13 03:00:08;;;;;;;12.00;9.90;;;;;;;18.20;100.00;99995.16;4863201;29;20044;-83
2021/07/13 03:02:34;;;;;;;12.15;9.98;;;;;;;18.22;100.00;99995.91;4864026;29;20033;-84
2021/07/13 03:05:00;;;;;;;13.63;9.85;;;;;;;18.19;100.00;99993.44;4863294;29;20029;-83
2021/07/13 03:07:26;;;;;;;12.15;9.60;;;;;;;18.16;100.00;99993.63;4846549;29;20026;-83
2021/07/13 03:09:52;;;;;;;15.38;10.50;;;;;;;18.16;100.00;99999.75;4862945;29;20025;-84
2021/07/13 03:12:18;;;;;;;13.00;10.80;;;;;;;18.15;100.00;100003.28;4847532;29;20044;-83
2021/07/13 03:14:43;;;;;;;11.82;10.10;;;;;;;18.16;100.00;100004.13;4846606;29;20025;-83
2021/07/13 03:17:11;;;;;;;14.23;10.77;;;;;;;18.12;100.00;99992.97;4863317;29;20578;-84
2021/07/13 03:19:36;;;;;;;14.02;9.85;;;;;;;18.10;100.00;99994.00;4847126;29;20385;-83
2021/07/13 03:22:04;;;;;;;16.20;10.68;;;;;;;18.09;100.00;99993.16;4846448;29;20026;-84
2021/07/13 03:24:30;;;;;;;14.38;10.98;;;;;;;18.11;100.00;99993.06;4846320;29;20074;-84
2021/07/13 03:26:58;;;;;;;13.55;11.05;;;;;;;18.13;100.00;99994.69;4863333;29;20029;-83
2021/07/13 03:29:25;;;;;;;14.23;10.85;;;;;;;18.10;100.00;99989.63;4863287;29;20083;-83
2021/07/13 03:31:51;;;;;;;16.13;11.25;;;;;;;18.10;100.00;99989.63;4847261;29;20038;-83
2021/07/13 03:34:17;;;;;;;16.73;11.35;;;;;;;18.08;100.00;99991.47;4846122;29;20040;-83
2021/07/13 03:36:43;;;;;;;17.55;11.00;;;;;;;18.10;100.00;99986.13;4862578;29;20098;-84
2021/07/13 03:39:08;;;;;;;13.43;11.13;;;;;;;18.07;100.00;99983.66;4862403;29;20037;-84
2021/07/13 03:41:35;;;;;;;14.88;10.93;;;;;;;18.08;100.00;99988.84;4862669;29;20029;-84
2021/07/13 03:44:02;;;;;;;16.92;11.60;;;;;;;18.08;100.00;99991.47;4862853;29;20029;-84
2021/07/13 03:46:31;;;;;;;15.77;11.68;;;;;;;18.08;100.00;99990.63;4862323;29;20501;-84
2021/07/13 03:48:57;;;;;;;13.30;11.13;;;;;;;18.10;100.00;99992.25;4862696;29;20120;-84
2021/07/13 03:51:42;;;;;;;16.08;11.60;;;;;;;18.20;100.00;99989.91;4862350;29;20071;-84
2021/07/13 03:54:08;;;;;;;15.70;12.02;;;;;;;18.25;100.00;99989.63;4885264;23;20053;-80
2021/07/13 03:56:34;;;;;;;15.27;10.68;;;;;;;18.30;100.00;99995.47;4846312;29;20029;-81
2021/07/13 03:59:00;;;;;;;15.20;11.32;;;;;;;18.32;100.00;99990.97;4863073;29;20101;-81
2021/07/13 04:01:25;;;;;;;16.70;12.48;;;;;;;18.35;100.00;100002.13;4845814;29;20108;-81
2021/07/13 04:03:51;;;;;;;15.25;11.20;;;;;;;18.38;100.00;99994.06;4862888;29;20052;-81
2021/07/13 04:06:16;;;;;;;14.32;12.32;;;;;;;18.45;100.00;99997.16;4862884;29;20498;-81
2021/07/13 04:08:41;;;;;;;15.38;11.18;;;;;;;18.54;100.00;99998.41;4862924;29;20112;-81
2021/07/13 04:11:07;;;;;;;17.83;12.48;;;;;;;18.48;100.00;99997.00;4846558;29;20479;-81
2021/07/13 04:13:32;;;;;;;14.35;10.75;;;;;;;18.47;100.00;99997.91;4862726;29;20077;-82
2021/07/13 04:15:57;;;;;;;16.02;12.70;;;;;;;18.45;100.00;100004.22;4846197;29;20479;-82
2021/07/13 04:18:22;;;;;;;17.92;12.85;;;;;;;18.44;100.00;99999.88;4845950;29;20025;-81
2021/07/13 04:20:49;;;;;;;14.65;11.88;;;;;;;18.48;100.00;100001.41;4862903;29;20098;-81
2021/07/13 04:23:14;;;;;;;16.30;12.93;;;;;;;18.54;100.00;100004.50;4845935;29;20025;-81
2021/07/13 04:25:39;;;;;;;18.90;12.40;;;;;;;18.54;100.00;100001.88;4845743;29;20029;-81
2021/07/13 04:28:04;;;;;;;20.42;11.90;;;;;;;18.56;100.00;100005.22;4845689;29;20037;-81
2021/07/13 04:30:30;;;;;;;16.85;11.90;;;;;;;18.69;100.00;100007.13;4845715;29;20405;-81
2021/07/13 04:32:55;;;;;;;17.17;12.48;;;;;;;18.74;100.00;100002.47;4862595;29;20021;-81
2021/07/13 04:35:20;;;;;;;20.40;14.20;;;;;;;18.75;100.00;100006.78;4862573;29;20041;-81
2021/07/13 04:37:46;;;;;;;17.48;12.75;;;;;;;18.90;100.00;100005.84;4863093;29;20021;-81
2021/07/13 04:40:12;;;;;;;16.60;12.32;;;;;;;18.93;100.00;99997.75;4846422;29;20077;-81
2021/07/13 04:42:38;;;;;;;18.48;12.15;;;;;;;18.85;100.00;100003.50;4847495;29;20457;-81
2021/07/13 04:45:03;;;;;;;15.10;12.63;;;;;;;18.89;100.00;100008.56;4862983;29;20057;-81
2021/07/13 04:47:29;;;;;;;15.10;12.20;;;;;;;18.82;100.00;100013.38;4846235;29;20089;-81
2021/07/13 04:49:54;;;;;;;16.27;13.32;;;;;;;18.86;100.00;100017.50;4862550;29;20044;-81
2021/07/13 04:52:20;;;;;;;18.83;13.25;;;;;;;19.01;100.00;100015.69;4846251;29;20482;-81
2021/07/13 04:54:46;;;;;;;20.27;13.70;;;;;;;18.99;100.00;100014.94;4862698;29;20550;-81
2021/07/13 04:57:11;;;;;;;19.52;12.93;;;;;;;18.96;100.00;100018.59;4846373;29;20036;-81
2021/07/13 04:59:39;;;;;;;16.83;13.05;;;;;;;18.94;100.00;100017.03;4862664;29;20029;-81
2021/07/13 05:02:04;;;;;;;16.95;13.65;;;;;;;19.01;100.00;100013.06;4846398;29;20559;-81
2021/07/13 05:04:38;;;;;;;21.08;12.82;;;;;;;19.05;100.00;100011.94;4846024;29;20025;-81
2021/07/13 05:07:04;;;;;;;15.27;11.85;;;;;;;19.25;100.00;100013.34;4846308;29;20025;-81
2021/07/13 05:09:29;;;;;;;18.25;12.23;;;;;;;19.17;100.00;100013.81;4846609;29;20513;-81
2021/07/13 05:11:54;;;;;;;16.98;13.20;;;;;;;19.11;100.00;100011.56;4863241;29;20062;-81
2021/07/13 05:14:20;;;;;;;16.60;12.93;;;;;;;19.08;100.00;100015.22;4846073;29;20077;-82
2021/07/13 05:16:45;;;;;;;18.65;13.63;;;;;;;19.09;100.00;100014.28;4845696;29;20030;-81
2021/07/13 05:19:13;;;;;;;16.58;12.85;;;;;;;19.12;100.00;100015.88;4845965;29;20124;-81
2021/07/13 05:21:40;;;;;;;16.55;12.85;;;;;;;19.14;100.00;100014.00;4847066;29;20051;-82
2021/07/13 05:24:06;;;;;;;15.75;12.52;;;;;;;19.21;100.00;100024.97;4846221;29;20024;-82
2021/07/13 05:26:31;;;;;;;14.30;12.75;;;;;;;19.29;100.00;100020.91;4863006;29;20030;-82
2021/07/13 05:29:01;;;;;;;18.27;13.52;;;;;;;19.42;100.00;100023.59;4846402;29;20120;-81
2021/07/13 05:31:27;;;;;;;16.38;12.57;;;;;;;19.41;100.00;100026.34;4846558;29;20086;-81
2021/07/13 05:33:57;;;;;;;17.88;12.50;;;;;;;19.60;100.00;100021.59;4846817;29;20029;-82
2021/07/13 05:36:22;;;;;;;14.10;12.40;;;;;;;19.54;100.00;100022.00;4847158;29;20034;-82
2021/07/13 05:38:47;;;;;;;26.88;12.93;;;;;;;19.76;100.00;100024.94;4848699;29;20025;-82
2021/07/13 05:41:13;;;;;;;15.82;12.30;;;;;;;19.96;100.00;100026.28;4866823;29;20037;-82
2021/07/13 05:43:38;;;;;;;16.85;12.18;;;;;;;20.19;100.00;100024.75;4866808;29;20547;-82
2021/07/13 05:46:03;;;;;;;16.23;12.60;;;;;;;20.40;100.00;100033.00;4867073;29;20048;-82
2021/07/13 05:48:28;;;;;;;15.27;12.65;;;;;;;20.60;100.00;100033.50;4849933;29;20587;-81
2021/07/13 05:50:54;;;;;;;15.25;12.27;;;;;;;20.62;100.00;100026.31;4850021;29;20053;-81
2021/07/13 05:53:19;;;;;;;13.32;11.82;;;;;;;20.69;100.00;100017.06;4866775;29;20025;-82
2021/07/13 05:55:45;;;;;;;15.63;11.45;;;;;;;21.12;100.00;100014.91;4868092;29;20410;-81
2021/07/13 05:58:10;;;;;;;14.25;11.13;;;;;;;21.28;100.00;100014.63;4851302;29;20398;-81
2021/07/13 06:00:35;;;;;;;13.85;11.77;;;;;;;21.40;100.00;100018.22;4867952;29;20033;-81
2021/07/13 06:03:01;;;;;;;15.27;11.32;;;;;;;21.58;100.00;100016.03;4867497;29;20022;-81
2021/07/13 06:05:26;;;;;;;17.25;11.70;;;;;;;21.45;100.00;100013.44;4851807;29;20398;-82
2021/07/13 06:07:52;;;;;;;17.35;10.80;;;;;;;21.49;100.00;100001.75;4851293;29;20101;-82
2021/07/13 06:10:18;;;;;;;12.75;10.82;;;;;;;21.54;100.00;100009.31;4867709;29;20046;-81
2021/07/13 06:12:44;;;;;;;14.68;10.77;;;;;;;21.28;100.00;100014.63;4851159;29;20057;-82
2021/07/13 06:15:10;;;;;;;13.52;10.65;;;;;;;21.02;100.00;100015.63;4867727;29;20048;-81
2021/07/13 06:17:48;;;;;;;14.52;11.52;;;;;;;21.32;100.00;100016.09;4871208;29;20029;-82
2021/07/13 06:20:14;;;;;;;13.68;10.43;;;;;;;21.27;100.00;100020.00;4851762;29;20021;-81
2021/07/13 06:22:40;;;;;;;15.73;10.60;;;;;;;21.07;100.00;100017.00;4851946;29;20445;-80
2021/07/13 06:25:06;;;;;;;12.57;10.55;;;;;;;21.20;100.00;100016.97;4851443;29;20025;-81
2021/07/13 06:27:31;;;;;;;14.68;11.00;;;;;;;21.43;100.00;100015.38;4851029;29;20030;-80
2021/07/13 06:29:57;;;;;;;12.55;10.77;;;;;;;21.60;100.00;100011.50;4851886;29;20103;-81
2021/07/13 06:32:22;;;;;;;12.30;10.98;;;;;;;21.50;100.00;100006.06;4867935;29;20026;-80
2021/07/13 06:34:47;;;;;;;13.30;10.30;;;;;;;22.00;100.00;100009.41;4851306;29;20426;-81
2021/07/13 06:37:12;;;;;;;13.13;10.55;;;;;;;22.24;100.00;100008.56;4852027;29;20037;-81
2021/07/13 06:39:38;;;;;;;18.63;10.32;;;;;;;22.84;100.00;100017.16;4849807;29;20033;-80
2021/07/13 06:42:03;;;;;;;14.90;9.82;;;;;;;23.45;100.00;100012.31;4851420;29;20398;-82
2021/07/13 06:44:28;;;;;;;13.15;10.10;;;;;;;23.02;100.00;100015.75;4868776;29;20032;-81
2021/07/13 06:46:54;;;;;;;12.27;10.77;;;;;;;23.23;100.00;100020.31;4851317;29;20033;-81
2021/07/13 06:49:19;;;;;;;11.77;9.77;;;;;;;23.59;100.00;100011.22;4868441;29;20428;-82
2021/07/13 06:51:44;;;;;;;14.45;9.77;;;;;;;24.06;100.00;100015.25;4852166;29;20036;-81
2021/07/13 06:54:10;;;;;;;11.43;8.82;;;;;;;24.31;99.97;100021.16;4851239;29;20055;-82
2021/07/13 06:56:35;;;;;;;14.95;9.48;;;;;;;24.93;96.02;100017.59;4851293;29;20460;-82
2021/07/13 06:59:00;;;;;;;11.33;8.53;;;;;;;25.62;92.54;100008.06;4866770;29;20482;-83
2021/07/13 07:01:25;;;;;;;13.03;8.63;;;;;;;24.84;90.87;100012.25;4847947;29;20274;-84
2021/07/13 07:03:51;;;;;;;11.15;8.45;;;;;;;24.82;91.51;100012.41;4849913;29;20273;-83
2021/07/13 07:06:16;;;;;;;10.68;8.70;;;;;;;24.64;96.01;100011.34;4865907;29;20029;-83
2021/07/13 07:08:42;;;;;;;11.18;8.73;;;;;;;24.63;93.87;99999.91;4849557;29;20120;-82
2021/07/13 07:11:07;;;;;;;12.55;8.20;;;;;;;25.10;91.53;99996.75;4866438;29;20394;-83
2021/07/13 07:13:32;;;;;;;11.80;8.20;;;;;;;24.99;91.90;100005.63;4849119;29;20028;-82
2021/07/13 07:15:57;;;;;;;17.20;8.83;;;;;;;24.94;92.08;100008.69;4847675;29;20562;-83
2021/07/13 07:18:23;;;;;;;9.82;8.13;;;;;;;24.57;92.63;100006.56;4848735;29;20282;-83
2021/07/13 07:20:48;;;;;;;11.52;7.82;;;;;;;25.57;91.56;100007.63;4848679;29;20076;-83
2021/07/13 07:23:13;;;;;;;12.35;9.15;;;;;;;25.31;89.62;100012.59;4865488;29;20030;-83
2021/07/13 07:25:39;;;;;;;11.03;8.70;;;;;;;25.51;87.70;100006.34;4847225;29;20038;-83
2021/07/13 07:28:10;;;;;;;10.57;8.45;;;;;;;25.43;88.04;100009.72;4848965;29;20270;-83
2021/07/13 07:30:36;;;;;;;11.95;8.68;;;;;;;25.73;84.97;100002.59;4850260;29;20034;-83
2021/07/13 07:33:01;;;;;;;9.65;8.35;;;;;;;25.19;84.11;100009.22;4849439;29;20017;-82
2021/07/13 07:35:30;;;;;;;11.48;8.30;;;;;;;25.36;81.79;100011.22;4866231;29;20120;-82
2021/07/13 07:37:55;;;;;;;9.40;8.40;;;;;;;25.80;78.74;100017.03;4850450;29;20061;-82
2021/07/13 07:40:21;;;;;;;9.70;8.50;;;;;;;25.81;79.06;100016.06;4850290;29;20029;-82
2021/07/13 07:42:54;;;;;;;12.90;8.10;;;;;;;25.46;82.46;100020.06;4866007;29;20048;-82
2021/07/13 07:45:25;;;;;;;10.50;8.20;;;;;;;25.68;79.43;100013.66;4848460;29;20148;-82
2021/07/13 07:47:51;;;;;;;9.43;7.72;;;;;;;26.73;76.27;100014.72;4848830;29;20124;-82
2021/07/13 07:50:18;;;;;;;9.75;7.70;;;;;;;27.09;74.39;100018.31;4848972;29;20382;-83
2021/07/13 07:52:44;;;;;;;10.02;7.60;;;;;;;26.79;70.85;100022.94;4865541;29;20494;-83
2021/07/13 07:55:11;;;;;;;10.18;7.85;;;;;;;26.35;76.27;100011.09;4848774;29;20037;-83
2021/07/13 07:57:36;;;;;;;8.48;7.45;;;;;;;26.50;76.20;100008.88;4846599;29;20078;-83
2021/07/13 08:00:07;;;;;;;11.38;7.68;;;;;;;26.56;73.35;100009.13;4861801;29;20033;-83
2021/07/13 08:02:33;;;;;;;9.10;7.03;;;;;;;25.93;75.24;100009.63;4844987;29;20029;-83
2021/07/13 08:04:59;;;;;;;9.07;7.07;;;;;;;27.05;73.31;100004.47;4845443;29;20599;-84
2021/07/13 08:07:25;;;;;;;8.90;7.85;;;;;;;26.42;77.84;100006.91;4845124;29;20036;-84
2021/07/13 08:09:50;;;;;;;11.57;7.53;;;;;;;26.60;74.24;100005.22;4845237;29;20037;-83
2021/07/13 08:12:15;;;;;;;9.95;7.53;;;;;;;26.65;72.34;100007.44;4845255;29;20037;-83
2021/07/13 08:14:44;;;;;;;12.83;7.70;;;;;;;26.56;73.44;100008.31;4845140;29;20422;-83
2021/07/13 08:17:09;;;;;;;8.55;6.93;;;;;;;26.70;70.69;100009.69;4845266;29;20278;-83
2021/07/13 08:19:38;;;;;;;11.38;7.03;;;;;;;27.00;70.71;99995.25;4845209;29;20036;-83
2021/07/13 08:22:13;;;;;;;11.25;7.15;;;;;;;27.67;66.54;99999.34;4845327;29;20501;-83
2021/07/13 08:24:39;;;;;;;8.20;6.43;;;;;;;26.03;72.58;100000.81;4861954;29;20029;-83
2021/07/13 08:27:07;;;;;;;11.68;7.40;;;;;;;25.62;76.45;99997.44;4845706;29;20028;-84
2021/07/13 08:29:36;;;;;;;12.60;6.82;;;;;;;25.18;78.67;100004.88;4845302;29;20033;-84
2021/07/13 08:32:02;;;;;;;9.18;7.20;;;;;;;24.65;82.75;100005.06;4845228;29;20030;-84
2021/07/13 08:34:29;;;;;;;8.48;6.78;;;;;;;25.65;77.80;99997.16;4845391;29;20482;-84
2021/07/13 08:36:55;;;;;;;10.30;6.93;;;;;;;26.12;71.08;99995.47;4845215;29;20040;-83
2021/07/13 08:39:20;;;;;;;9.73;6.50;;;;;;;27.26;67.90;99995.44;4845614;29;20034;-84
2021/07/13 08:41:46;;;;;;;10.55;6.70;;;;;;;27.97;66.16;100003.47;4845217;29;20065;-84
2021/07/13 08:44:12;;;;;;;8.45;6.28;;;;;;;28.87;62.86;99992.56;4844732;29;20025;-84
2021/07/13 08:46:39;;;;;;;8.43;6.50;;;;;;;28.56;61.61;100000.25;4844932;29;20096;-84
2021/07/13 08:49:07;;;;;;;11.50;6.88;;;;;;;28.33;62.97;99995.41;4844928;29;20031;-84
2021/07/13 08:51:33;;;;;;;7.95;5.47;;;;;;;28.16;62.26;99998.97;4861080;29;20032;-84
2021/07/13 08:54:01;;;;;;;7.80;5.40;;;;;;;26.92;64.63;99990.66;4844706;29;20033;-84
2021/07/13 08:56:27;;;;;;;8.48;5.85;;;;;;;27.58;60.48;99988.75;4844877;29;20040;-84
2021/07/13 08:58:56;;;;;;;7.88;6.00;;;;;;;28.30;59.43;99985.06;4845203;29;20057;-84
2021/07/13 09:01:24;;;;;;;10.32;5.70;;;;;;;27.48;61.37;99980.84;4861105;29;20037;-84
2021/07/13 09:04:03;;;;;;;7.32;5.85;;;;;;;27.07;62.70;99980.38;4844756;29;20022;-85
2021/07/13 09:06:57;;;;;;;8.10;5.85;;;;;;;26.89;66.79;99985.63;4845188;29;20061;-85
2021/07/13 09:09:44;;;;;;;6.97;5.30;;;;;;;26.76;67.44;99993.97;4845256;29;20108;-84
2021/07/13 09:12:17;;;;;;;7.82;5.97;;;;;;;26.49;64.78;99985.94;4846494;29;20041;-85
2021/07/13 09:14:52;;;;;;;8.30;6.50;;;;;;;25.26;70.22;99975.84;4848235;29;20029;-84
2021/07/13 09:17:31;;;;;;;9.90;5.93;;;;;;;27.50;65.35;99970.88;4849638;29;20037;-84
2021/07/13 09:20:00;;;;;;;11.45;5.55;;;;;;;27.83;59.38;99979.19;4849352;29;20087;-84
2021/07/13 09:22:28;;;;;;;8.85;5.22;;;;;;;27.27;60.30;99981.13;4848594;29;20402;-84
2021/07/13 09:24:55;;;;;;;7.10;5.10;;;;;;;27.88;60.20;99983.06;4864706;29;20029;-84
2021/07/13 09:27:22;;;;;;;6.50;5.32;;;;;;;26.94;61.54;99979.84;4848138;29;20029;-84
2021/07/13 09:29:49;;;;;;;10.38;5.45;;;;;;;28.85;56.50;99983.88;4848686;29;20037;-84
2021/07/13 09:32:27;;;;;;;7.40;5.10;;;;;;;28.03;57.61;99980.69;4848314;29;20033;-84
2021/07/13 09:35:01;;;;;;;7.97;5.32;;;;;;;28.50;57.02;99980.38;4864976;29;20035;-84
2021/07/13 09:37:29;;;;;;;7.57;5.57;;;;;;;27.15;62.35;99982.31;4848060;29;20041;-84
2021/07/13 09:39:59;;;;;;;9.68;5.68;;;;;;;28.60;57.35;99977.59;4848332;29;20033;-83
2021/07/13 09:42:26;;;;;;;8.68;5.57;;;;;;;28.38;58.89;99981.59;4848213;29;20036;-83
2021/07/13 09:44:52;;;;;;;9.95;6.25;;;;;;;27.95;60.14;99985.94;4847719;29;20482;-83
2021/07/13 09:47:28;;;;;;;9.63;5.90;;;;;;;29.21;54.69;99975.69;4848273;29;20029;-83
2021/07/13 09:49:53;;;;;;;7.05;5.88;;;;;;;29.52;52.02;99966.06;4847906;29;20026;-83
2021/07/13 09:52:24;;;;;;;7.43;5.68;;;;;;;28.59;54.51;99974.09;4849155;29;20040;-83
2021/07/13 09:54:49;;;;;;;7.13;5.53;;;;;;;28.54;55.95;99973.75;4848153;29;20241;-83
2021/07/13 09:57:23;;;;;;;7.80;5.50;;;;;;;27.72;58.42;99962.41;4864322;29;20529;-83
2021/07/13 09:59:51;;;;;;;8.60;5.93;;;;;;;28.22;57.22;99966.31;4864948;29;20057;-83
2021/07/13 10:02:19;;;;;;;7.85;6.40;;;;;;;27.34;62.55;99965.38;4864848;29;20037;-83
2021/07/13 10:04:49;;;;;;;9.82;5.93;;;;;;;29.52;57.13;99973.25;4864781;29;20090;-83
2021/07/13 10:07:20;;;;;;;7.68;5.68;;;;;;;28.26;58.58;99972.19;4848574;29;20022;-83
2021/07/13 10:09:48;;;;;;;8.27;5.60;;;;;;;29.46;55.82;99972.06;4848314;29;20059;-83
2021/07/13 10:12:15;;;;;;;9.07;6.30;;;;;;;27.67;62.40;99962.03;4864668;29;20032;-83
2021/07/13 10:14:42;;;;;;;9.65;6.22;;;;;;;27.31;60.52;99972.69;4864210;29;20105;-83
2021/07/13 10:17:09;;;;;;;7.45;5.75;;;;;;;28.22;58.35;99969.81;4847795;29;20490;-83
2021/07/13 10:19:39;;;;;;;9.45;5.57;;;;;;;29.04;56.33;99967.66;4864187;29;20108;-83
2021/07/13 10:22:05;;;;;;;9.35;5.20;;;;;;;29.19;53.93;99967.00;4847682;29;20025;-84
2021/07/13 10:24:32;;;;;;;6.38;4.88;;;;;;;28.03;55.30;99967.38;4863750;29;20032;-83
2021/07/13 10:26:59;;;;;;;7.28;4.68;;;;;;;28.84;51.16;99972.38;4848509;29;20368;-83
2021/07/13 10:29:33;;;;;;;5.97;4.80;;;;;;;27.67;54.53;99964.69;4864802;29;20036;-83
2021/07/13 10:32:04;;;;;;;7.05;4.70;;;;;;;29.10;53.06;99967.00;4864324;29;20025;-83
2021/07/13 10:34:49;;;;;;;8.90;5.75;;;;;;;28.80;53.06;99964.84;4847694;29;20052;-83
2021/07/13 10:37:27;;;;;;;6.07;4.72;;;;;;;28.78;52.33;99966.84;4847380;29;20049;-83
2021/07/13 10:40:12;;;;;;;6.13;4.70;;;;;;;29.68;52.59;99965.31;4847103;29;20025;-83
2021/07/13 10:42:41;;;;;;;5.85;4.53;;;;;;;30.39;50.93;99969.13;4863734;29;20025;-83
2021/07/13 10:45:29;;;;;;;8.43;4.45;;;;;;;29.46;49.71;99960.56;4846490;29;20057;-83
2021/07/13 10:47:57;;;;;;;6.40;4.70;;;;;;;29.93;48.41;99963.47;4847480;29;20491;-83
2021/07/13 10:50:22;;;;;;;6.07;4.32;;;;;;;29.45;48.75;99964.25;4846645;29;20505;-83
2021/07/13 10:52:58;;;;;;;7.22;4.30;;;;;;;29.51;49.77;99963.59;4846455;29;20034;-83
2021/07/13 10:55:29;;;;;;;7.72;4.88;;;;;;;28.97;51.21;99966.56;4846461;29;20438;-83
2021/07/13 10:58:10;;;;;;;7.78;4.88;;;;;;;30.34;49.33;99962.59;4846899;29;20501;-83
2021/07/13 11:00:44;;;;;;;6.72;4.80;;;;;;;29.92;48.37;99953.75;4863372;29;20395;-84
2021/07/13 11:03:29;;;;;;;6.75;4.53;;;;;;;30.18;46.98;99950.91;4846874;29;20510;-83
2021/07/13 11:06:02;;;;;;;5.80;4.47;;;;;;;29.49;49.14;99955.72;4862505;29;20394;-85
2021/07/13 11:08:40;;;;;;;7.07;4.55;;;;;;;30.04;46.72;99960.44;4846811;29;20061;-85
2021/07/13 11:11:09;;;;;;;7.10;4.45;;;;;;;27.98;52.88;99964.31;4863144;29;20029;-85
2021/07/13 11:13:36;;;;;;;7.65;4.38;;;;;;;29.41;48.20;99958.41;4846782;29;20057;-83
2021/07/13 11:16:03;;;;;;;7.38;4.55;;;;;;;30.01;46.59;99957.25;4846308;29;20033;-84
2021/07/13 11:18:34;;;;;;;6.43;4.70;;;;;;;29.72;49.22;99955.13;4847214;29;20029;-83
2021/07/13 11:21:14;;;;;;;5.75;4.38;;;;;;;27.85;52.37;99966.56;4863695;29;20394;-85